createdAt,value
2023-02-19T00:02:17.821Z,101753.25
2023-02-19T00:04:45.695Z,101750.38
2023-02-19T00:07:13.570Z,101738.75
2023-02-19T00:09:41.338Z,101747.31
2023-02-19T00:12:09.128Z,101739.34
2023-02-19T00:14:40.114Z,101744.66
2023-02-19T00:17:08.260Z,101743.44
2023-02-19T00:19:39.238Z,101755.47
2023-02-19T00:22:07.096Z,101745.94
2023-02-19T00:24:35.180Z,101739.78
2023-02-19T00:27:03.291Z,101738.34
2023-02-19T00:29:31.622Z,101738.63
2023-02-19T00:32:00.051Z,101736.56
2023-02-19T00:34:27.904Z,101737.34
2023-02-19T00:36:55.723Z,101737.28
2023-02-19T00:39:23.926Z,101742.28
2023-02-19T00:41:52.591Z,101737.84
2023-02-19T00:44:21.029Z,101742.00
2023-02-19T00:46:49.551Z,101734.09
2023-02-19T00:49:21.312Z,101737.28
2023-02-19T00:51:51.774Z,101738.66
2023-02-19T00:54:22.619Z,101734.41
2023-02-19T00:56:51.253Z,101732.28
2023-02-19T00:59:19.706Z,101732.59
2023-02-19T01:01:48.080Z,101732.59
2023-02-19T01:04:16.768Z,101727.06
2023-02-19T01:06:45.013Z,101726.44
2023-02-19T01:09:13.966Z,101731.91
2023-02-19T01:11:42.391Z,101725.44
2023-02-19T01:14:11.245Z,101726.44
2023-02-19T01:16:40.432Z,101728.50
2023-02-19T01:19:08.496Z,101720.19
2023-02-19T01:21:36.692Z,101714.75
2023-02-19T01:24:05.032Z,101710.59
2023-02-19T01:26:34.042Z,101708.75
2023-02-19T01:29:04.360Z,101716.91
2023-02-19T01:31:32.506Z,101709.44
2023-02-19T01:34:03.158Z,101711.44
2023-02-19T01:36:34.148Z,101715.09
2023-02-19T01:39:05.321Z,101708.38
2023-02-19T01:41:39.250Z,101714.19
2023-02-19T01:44:13.212Z,101707.72
2023-02-19T01:46:42.482Z,101706.31
2023-02-19T01:49:21.736Z,101689.28
2023-02-19T01:52:14.821Z,101694.84
2023-02-19T01:54:45.860Z,101693.09
2023-02-19T01:57:21.901Z,101689.44
2023-02-19T01:59:55.580Z,101679.69
2023-02-19T02:02:25.449Z,101675.53
2023-02-19T02:04:54.159Z,101674.81
2023-02-19T02:07:42.204Z,101676.97
2023-02-19T02:10:22.692Z,101675.22
2023-02-19T02:12:53.296Z,101661.47
2023-02-19T02:15:22.778Z,101659.84
2023-02-19T02:17:59.906Z,101657.00
2023-02-19T02:20:44.160Z,101651.88
2023-02-19T02:23:55.726Z,101647.22
2023-02-19T02:26:44.037Z,101646.75
2023-02-19T02:29:26.122Z,101654.03
2023-02-19T02:32:10.871Z,101652.16
2023-02-19T02:34:51.412Z,101661.75
2023-02-19T02:37:20.302Z,101648.16
2023-02-19T02:39:50.098Z,101640.91
2023-02-19T02:42:30.294Z,101651.84
2023-02-19T02:45:36.505Z,101644.97
2023-02-19T02:48:47.444Z,101647.63
2023-02-19T02:51:26.017Z,101644.81
2023-02-19T02:54:30.111Z,101637.75
2023-02-19T02:57:01.359Z,101640.72
2023-02-19T02:59:45.104Z,101642.00
2023-02-19T03:02:21.514Z,101639.50
2023-02-19T03:05:27.450Z,101636.91
2023-02-19T03:08:19.164Z,101645.28
2023-02-19T03:10:50.026Z,101637.75
2023-02-19T03:13:44.125Z,101640.09
2023-02-19T03:16:47.640Z,101637.38
2023-02-19T03:19:19.533Z,101640.72
2023-02-19T03:22:00.395Z,101636.94
2023-02-19T03:24:54.432Z,101630.63
2023-02-19T03:27:25.481Z,101620.34
2023-02-19T03:29:59.087Z,101636.00
2023-02-19T03:32:29.914Z,101634.44
2023-02-19T03:35:14.053Z,101632.28
2023-02-19T03:37:47.340Z,101635.16
2023-02-19T03:40:17.079Z,101637.13
2023-02-19T03:42:56.156Z,101637.28
2023-02-19T03:45:54.452Z,101639.63
2023-02-19T03:48:35.702Z,101642.09
2023-02-19T03:51:27.740Z,101632.97
2023-02-19T03:53:56.248Z,101638.41
2023-02-19T03:56:37.464Z,101630.63
2023-02-19T03:59:20.619Z,101638.63
2023-02-19T04:02:01.488Z,101646.50
2023-02-19T04:04:37.599Z,101638.06
2023-02-19T04:07:06.173Z,101643.78
2023-02-19T04:09:40.475Z,101638.78
2023-02-19T04:12:14.563Z,101641.50
2023-02-19T04:14:49.371Z,101644.50
2023-02-19T04:17:26.835Z,101641.63
2023-02-19T04:19:56.684Z,101640.25
2023-02-19T04:22:25.616Z,101647.16
2023-02-19T04:24:55.707Z,101635.34
2023-02-19T04:27:23.636Z,101642.78
2023-02-19T04:29:51.462Z,101644.81
2023-02-19T04:32:19.358Z,101643.75
2023-02-19T04:34:47.132Z,101633.50
2023-02-19T04:37:15.050Z,101631.91
2023-02-19T04:39:43.012Z,101634.34
2023-02-19T04:42:11.345Z,101631.06
2023-02-19T04:44:39.130Z,101624.03
2023-02-19T04:47:06.952Z,101624.72
2023-02-19T04:49:34.849Z,101624.63
2023-02-19T04:52:02.677Z,101625.13
2023-02-19T04:54:30.432Z,101625.00
2023-02-19T04:56:58.207Z,101612.75
2023-02-19T04:59:26.432Z,101624.91
2023-02-19T05:01:54.352Z,101615.63
2023-02-19T05:04:22.330Z,101611.78
2023-02-19T05:06:50.576Z,101612.69
2023-02-19T05:09:18.598Z,101599.63
2023-02-19T05:11:46.671Z,101605.06
2023-02-19T05:14:14.449Z,101614.09
2023-02-19T05:16:42.264Z,101592.09
2023-02-19T05:19:13.069Z,101587.41
2023-02-19T05:21:41.132Z,101592.66
2023-02-19T05:24:09.502Z,101592.09
2023-02-19T05:26:37.369Z,101588.63
2023-02-19T05:29:05.172Z,101593.06
2023-02-19T05:31:34.059Z,101587.25
2023-02-19T05:34:01.971Z,101592.53
2023-02-19T05:36:29.920Z,101593.97
2023-02-19T05:38:58.292Z,101594.38
2023-02-19T05:41:28.895Z,101594.38
2023-02-19T05:43:57.875Z,101593.00
2023-02-19T05:46:29.483Z,101590.00
2023-02-19T05:49:00.713Z,101586.97
2023-02-19T05:51:28.698Z,101575.47
2023-02-19T05:53:57.327Z,101582.19
2023-02-19T05:56:39.997Z,101576.00
2023-02-19T05:59:19.900Z,101580.06
2023-02-19T06:01:49.655Z,101583.53
2023-02-19T06:04:19.354Z,101579.25
2023-02-19T06:06:48.337Z,101574.06
2023-02-19T06:09:16.292Z,101579.25
2023-02-19T06:11:44.341Z,101574.41
2023-02-19T06:14:14.207Z,101577.72
2023-02-19T06:16:42.319Z,101585.06
2023-02-19T06:19:10.690Z,101586.94
2023-02-19T06:21:38.520Z,101581.13
2023-02-19T06:24:08.085Z,101586.19
2023-02-19T06:26:36.003Z,101580.31
2023-02-19T06:29:04.495Z,101570.03
2023-02-19T06:31:32.686Z,101567.31
2023-02-19T06:34:04.313Z,101579.53
2023-02-19T06:36:32.150Z,101570.22
2023-02-19T06:39:01.146Z,101566.81
2023-02-19T06:41:29.032Z,101567.25
2023-02-19T06:44:00.134Z,101565.63
2023-02-19T06:46:28.081Z,101568.19
2023-02-19T06:48:57.110Z,101575.66
2023-02-19T06:51:27.296Z,101591.41
2023-02-19T06:53:56.142Z,101589.69
2023-02-19T06:56:31.775Z,101574.13
2023-02-19T06:59:02.331Z,101586.56
2023-02-19T07:01:33.452Z,101584.81
2023-02-19T07:04:01.682Z,101582.06
2023-02-19T07:06:30.323Z,101584.88
2023-02-19T07:08:59.238Z,101570.28
2023-02-19T07:11:31.055Z,101588.91
2023-02-19T07:14:00.873Z,101563.34
2023-02-19T07:16:29.310Z,101562.63
2023-02-19T07:18:58.881Z,101571.84
2023-02-19T07:21:27.758Z,101573.75
2023-02-19T07:23:55.929Z,101578.25
2023-02-19T07:26:24.296Z,101576.84
2023-02-19T07:28:52.746Z,101566.06
2023-02-19T07:31:23.093Z,101576.34
2023-02-19T07:33:51.638Z,101570.91
2023-02-19T07:36:20.566Z,101568.66
2023-02-19T07:38:55.360Z,101571.25
2023-02-19T07:41:24.508Z,101563.53
2023-02-19T07:43:53.740Z,101575.84
2023-02-19T07:46:22.589Z,101565.84
2023-02-19T07:48:50.646Z,101562.50
2023-02-19T07:51:19.751Z,101551.25
2023-02-19T07:53:50.465Z,101563.53
2023-02-19T07:56:19.938Z,101554.97
2023-02-19T07:58:48.028Z,101549.97
2023-02-19T08:01:18.906Z,101555.13
2023-02-19T08:03:48.896Z,101560.84
2023-02-19T08:06:18.174Z,101565.38
2023-02-19T08:08:45.962Z,101559.81
2023-02-19T08:11:32.335Z,101569.50
2023-02-19T08:14:00.277Z,101571.91
2023-02-19T08:16:41.081Z,101569.78
2023-02-19T08:19:10.851Z,101574.09
2023-02-19T08:21:38.691Z,101572.25
2023-02-19T08:24:06.623Z,101581.06
2023-02-19T08:26:35.030Z,101578.78
2023-02-19T08:29:04.362Z,101582.53
2023-02-19T08:31:33.741Z,101575.44
2023-02-19T08:34:01.677Z,101578.53
2023-02-19T08:36:29.704Z,101563.16
2023-02-19T08:38:57.621Z,101578.53
2023-02-19T08:41:25.554Z,101588.78
2023-02-19T08:43:53.342Z,101586.84
2023-02-19T08:46:22.935Z,101586.34
2023-02-19T08:48:51.203Z,101589.59
2023-02-19T08:51:19.329Z,101585.09
2023-02-19T08:53:47.161Z,101571.69
2023-02-19T08:56:17.529Z,101566.78
2023-02-19T08:58:45.903Z,101557.75
2023-02-19T09:01:17.988Z,101561.00
2023-02-19T09:03:46.246Z,101575.22
2023-02-19T09:06:19.860Z,101562.75
2023-02-19T09:08:48.039Z,101551.16
2023-02-19T09:11:15.903Z,101563.97
2023-02-19T09:13:44.260Z,101558.19
2023-02-19T09:16:12.336Z,101568.78
2023-02-19T09:18:40.357Z,101557.69
2023-02-19T09:21:08.323Z,101565.50
2023-02-19T09:23:37.202Z,101558.78
2023-02-19T09:26:09.552Z,101551.16
2023-02-19T09:28:39.842Z,101547.41
2023-02-19T09:31:13.149Z,101549.41
2023-02-19T09:33:48.712Z,101548.03
2023-02-19T09:36:18.782Z,101553.88
2023-02-19T09:38:46.635Z,101557.97
2023-02-19T09:41:22.626Z,101573.09
2023-02-19T09:43:50.857Z,101567.63
2023-02-19T09:46:24.639Z,101574.56
2023-02-19T09:48:55.711Z,101574.09
2023-02-19T09:51:28.861Z,101567.53
2023-02-19T09:53:58.075Z,101558.69
2023-02-19T09:56:27.683Z,101557.03
2023-02-19T09:58:58.353Z,101556.13
2023-02-19T10:01:33.599Z,101553.13
2023-02-19T10:04:01.567Z,101544.91
2023-02-19T10:06:30.530Z,101568.25
2023-02-19T10:09:22.410Z,101560.47
2023-02-19T10:11:51.904Z,101560.69
2023-02-19T10:14:34.075Z,101557.47
2023-02-19T10:17:05.989Z,101565.94
2023-02-19T10:19:34.961Z,101555.44
2023-02-19T10:22:04.557Z,101564.50
2023-02-19T10:24:34.080Z,101562.19
2023-02-19T10:27:01.954Z,101564.97
2023-02-19T10:29:29.803Z,101560.63
2023-02-19T10:32:14.041Z,101554.84
2023-02-19T10:34:42.467Z,101553.19
2023-02-19T10:37:15.717Z,101549.72
2023-02-19T10:39:47.139Z,101546.38
2023-02-19T10:42:24.088Z,101540.28
2023-02-19T10:45:01.938Z,101539.44
2023-02-19T10:47:33.346Z,101544.91
2023-02-19T10:50:04.306Z,101550.13
2023-02-19T10:52:36.349Z,101545.09
2023-02-19T10:55:28.493Z,101561.72
2023-02-19T10:57:57.839Z,101554.47
2023-02-19T11:00:30.620Z,101547.66
2023-02-19T11:03:22.396Z,101541.28
2023-02-19T11:06:08.502Z,101537.06
2023-02-19T11:08:51.412Z,101524.88
2023-02-19T11:11:34.878Z,101527.41
2023-02-19T11:14:24.925Z,101519.81
2023-02-19T11:16:56.634Z,101523.47
2023-02-19T11:19:26.679Z,101514.50
2023-02-19T11:21:55.768Z,101511.78
2023-02-19T11:24:31.624Z,101503.97
2023-02-19T11:27:01.096Z,101510.09
2023-02-19T11:29:34.894Z,101502.84
2023-02-19T11:32:21.049Z,101498.22
2023-02-19T11:34:49.201Z,101493.31
2023-02-19T11:37:21.998Z,101495.00
2023-02-19T11:39:52.684Z,101487.53
2023-02-19T11:42:39.394Z,101483.03
2023-02-19T11:45:19.044Z,101488.63
2023-02-19T11:48:05.169Z,101485.94
2023-02-19T11:50:43.034Z,101471.59
2023-02-19T11:53:29.089Z,101474.13
2023-02-19T11:56:09.143Z,101470.00
2023-02-19T11:58:50.633Z,101477.38
2023-02-19T12:01:45.893Z,101462.50
2023-02-19T12:04:44.463Z,101464.69
2023-02-19T12:07:51.475Z,101457.47
2023-02-19T12:10:37.706Z,101457.22
2023-02-19T12:13:08.583Z,101454.44
2023-02-19T12:15:45.295Z,101445.66
2023-02-19T12:18:41.116Z,101433.03
2023-02-19T12:21:32.871Z,101433.31
2023-02-19T12:24:15.557Z,101438.34
2023-02-19T12:27:25.424Z,101437.31
2023-02-19T12:30:12.861Z,101418.94
2023-02-19T12:33:22.121Z,101421.50
2023-02-19T12:35:49.924Z,101426.28
2023-02-19T12:38:40.089Z,101426.03
2023-02-19T12:41:27.503Z,101412.31
2023-02-19T12:44:34.937Z,101414.84
2023-02-19T12:47:06.888Z,101397.28
2023-02-19T12:49:47.063Z,101402.47
2023-02-19T12:52:25.968Z,101400.25
2023-02-19T12:55:17.988Z,101392.66
2023-02-19T12:57:46.994Z,101386.16
2023-02-19T13:01:00.162Z,101392.22
2023-02-19T13:03:38.376Z,101385.88
2023-02-19T13:06:42.936Z,101394.41
2023-02-19T13:09:28.398Z,101380.94
2023-02-19T13:12:03.483Z,101377.94
2023-02-19T13:14:38.012Z,101373.53
2023-02-19T13:17:28.453Z,101367.22
2023-02-19T13:20:02.759Z,101370.50
2023-02-19T13:23:02.050Z,101360.34
2023-02-19T13:26:04.448Z,101351.31
2023-02-19T13:28:50.768Z,101366.97
2023-02-19T13:31:29.917Z,101360.91
2023-02-19T13:34:24.033Z,101365.59
2023-02-19T13:36:53.275Z,101354.59
2023-02-19T13:39:24.806Z,101347.47
2023-02-19T13:41:56.020Z,101352.13
2023-02-19T13:44:27.810Z,101354.06
2023-02-19T13:46:56.158Z,101355.97
2023-02-19T13:49:31.702Z,101354.59
2023-02-19T13:52:30.532Z,101353.75
2023-02-19T13:55:35.891Z,101347.75
2023-02-19T13:58:41.785Z,101348.00
2023-02-19T14:01:14.092Z,101343.59
2023-02-19T14:03:43.830Z,101347.75
2023-02-19T14:06:11.956Z,101342.78
2023-02-19T14:08:46.227Z,101337.31
2023-02-19T14:11:16.201Z,101345.25
2023-02-19T14:13:50.047Z,101346.91
2023-02-19T14:16:51.956Z,101350.47
2023-02-19T14:19:41.619Z,101342.78
2023-02-19T14:22:47.548Z,101343.88
2023-02-19T14:25:27.964Z,101350.19
2023-02-19T14:28:01.877Z,101334.84
2023-02-19T14:30:31.907Z,101343.88
2023-02-19T14:33:10.544Z,101341.69
2023-02-19T14:35:45.520Z,101352.41
2023-02-19T14:38:26.912Z,101345.53
2023-02-19T14:40:56.249Z,101344.16
2023-02-19T14:43:26.178Z,101347.72
2023-02-19T14:45:59.344Z,101348.28
2023-02-19T14:48:33.510Z,101334.56
2023-02-19T14:51:04.618Z,101340.31
2023-02-19T14:53:38.109Z,101335.66
2023-02-19T14:56:17.013Z,101321.38
2023-02-19T14:58:45.103Z,101331.25
2023-02-19T15:01:29.104Z,101330.16
2023-02-19T15:03:57.485Z,101339.22
2023-02-19T15:06:27.324Z,101335.38
2023-02-19T15:09:00.548Z,101338.13
2023-02-19T15:11:32.169Z,101327.94
2023-02-19T15:14:04.482Z,101335.63
2023-02-19T15:16:35.802Z,101334.56
2023-02-19T15:19:12.065Z,101339.22
2023-02-19T15:21:46.841Z,101352.66
2023-02-19T15:24:17.409Z,101352.38
2023-02-19T15:26:51.037Z,101347.16
2023-02-19T15:29:22.336Z,101351.53
2023-02-19T15:31:54.012Z,101343.25
2023-02-19T15:34:27.966Z,101344.59
2023-02-19T15:36:58.865Z,101343.44
2023-02-19T15:39:41.927Z,101348.91
2023-02-19T15:42:19.498Z,101347.50
2023-02-19T15:45:04.480Z,101348.06
2023-02-19T15:47:51.923Z,101364.59
2023-02-19T15:50:27.634Z,101347.00
2023-02-19T15:53:35.213Z,101346.09
2023-02-19T15:56:10.712Z,101350.28
2023-02-19T15:58:50.946Z,101352.06
2023-02-19T16:01:32.450Z,101364.72
2023-02-19T16:04:01.063Z,101349.00
2023-02-19T16:06:29.761Z,101364.22
2023-02-19T16:09:04.129Z,101365.56
2023-02-19T16:11:50.420Z,101353.69
2023-02-19T16:14:22.656Z,101369.44
2023-02-19T16:17:11.122Z,101353.84
2023-02-19T16:20:00.889Z,101361.25
2023-02-19T16:22:31.373Z,101358.06
2023-02-19T16:25:04.277Z,101366.19
2023-02-19T16:27:35.362Z,101378.00
2023-02-19T16:30:25.819Z,101372.81
2023-02-19T16:33:35.644Z,101367.44
2023-02-19T16:36:31.226Z,101379.47
2023-02-19T16:39:20.766Z,101381.38
2023-02-19T16:41:49.085Z,101390.03
2023-02-19T16:44:56.758Z,101380.44
2023-02-19T16:47:37.139Z,101384.09
2023-02-19T16:50:19.367Z,101393.16
2023-02-19T16:53:03.006Z,101397.38
2023-02-19T16:55:35.511Z,101417.47
2023-02-19T16:58:03.606Z,101415.56
2023-02-19T17:00:32.464Z,101412.50
2023-02-19T17:03:09.663Z,101412.47
2023-02-19T17:05:40.182Z,101425.31
2023-02-19T17:08:31.879Z,101428.16
2023-02-19T17:11:03.340Z,101434.84
2023-02-19T17:13:31.625Z,101437.69
2023-02-19T17:16:00.089Z,101442.59
2023-02-19T17:18:28.774Z,101456.44
2023-02-19T17:21:11.173Z,101454.13
2023-02-19T17:23:39.339Z,101447.28
2023-02-19T17:26:09.715Z,101443.03
2023-02-19T17:28:41.466Z,101456.09
2023-02-19T17:31:14.706Z,101460.44
2023-02-19T17:33:43.586Z,101468.28
2023-02-19T17:36:24.008Z,101466.81
2023-02-19T17:38:51.927Z,101480.75
2023-02-19T17:41:19.877Z,101483.19
2023-02-19T17:43:48.334Z,101474.19
2023-02-19T17:46:21.714Z,101482.09
2023-02-19T17:48:50.083Z,101491.47
2023-02-19T17:51:17.978Z,101488.47
2023-02-19T17:53:46.812Z,101476.00
2023-02-19T17:56:23.133Z,101474.72
2023-02-19T17:58:51.457Z,101483.13
2023-02-19T18:01:19.552Z,101479.53
2023-02-19T18:03:47.584Z,101484.31
2023-02-19T18:06:17.609Z,101483.31
2023-02-19T18:08:52.779Z,101489.94
2023-02-19T18:11:24.611Z,101498.00
2023-02-19T18:13:52.876Z,101485.25
2023-02-19T18:16:21.359Z,101484.00
2023-02-19T18:18:49.191Z,101488.66
2023-02-19T18:21:17.252Z,101486.38
2023-02-19T18:23:46.557Z,101498.16
2023-02-19T18:26:19.768Z,101502.41
2023-02-19T18:28:47.787Z,101500.25
2023-02-19T18:31:16.073Z,101513.47
2023-02-19T18:33:44.381Z,101524.34
2023-02-19T18:36:13.228Z,101525.44
2023-02-19T18:38:41.228Z,101531.41
2023-02-19T18:41:13.808Z,101538.41
2023-02-19T18:43:42.217Z,101538.91
2023-02-19T18:46:11.533Z,101543.19
2023-02-19T18:48:39.806Z,101546.03
2023-02-19T18:51:11.727Z,101555.28
2023-02-19T18:53:42.928Z,101557.47
2023-02-19T18:56:12.356Z,101563.34
2023-02-19T18:58:40.521Z,101566.94
2023-02-19T19:01:09.777Z,101571.91
2023-02-19T19:03:37.734Z,101572.16
2023-02-19T19:06:06.011Z,101584.66
2023-02-19T19:08:34.347Z,101574.88
2023-02-19T19:11:02.386Z,101569.91
2023-02-19T19:13:30.373Z,101562.78
2023-02-19T19:15:58.325Z,101578.50
2023-02-19T19:18:28.185Z,101575.38
2023-02-19T19:21:01.833Z,101579.91
2023-02-19T19:23:29.642Z,101593.28
2023-02-19T19:25:58.350Z,101599.06
2023-02-19T19:28:26.282Z,101599.13
2023-02-19T19:30:54.282Z,101608.44
2023-02-19T19:33:22.250Z,101611.72
2023-02-19T19:35:52.798Z,101614.16
2023-02-19T19:38:20.689Z,101609.19
2023-02-19T19:40:48.587Z,101633.22
2023-02-19T19:43:16.556Z,101627.94
2023-02-19T19:45:44.636Z,101627.34
2023-02-19T19:48:12.550Z,101632.72
2023-02-19T19:50:45.708Z,101632.88
2023-02-19T19:53:14.352Z,101644.72
2023-02-19T19:55:42.234Z,101640.41
2023-02-19T19:58:10.194Z,101631.16
2023-02-19T20:00:38.154Z,101643.22
2023-02-19T20:03:07.200Z,101654.25
2023-02-19T20:05:35.219Z,101640.97
2023-02-19T20:08:03.090Z,101639.16
2023-02-19T20:10:32.635Z,101646.28
2023-02-19T20:13:00.650Z,101634.16
2023-02-19T20:15:28.721Z,101647.09
2023-02-19T20:17:56.938Z,101645.28
2023-02-19T20:20:25.058Z,101648.09
2023-02-19T20:22:53.755Z,101643.47
2023-02-19T20:25:23.262Z,101653.25
2023-02-19T20:27:52.778Z,101637.81
2023-02-19T20:30:23.738Z,101644.78
2023-02-19T20:32:52.716Z,101636.34
2023-02-19T20:35:22.242Z,101649.56
2023-02-19T20:37:51.492Z,101642.16
2023-02-19T20:40:20.134Z,101637.59
2023-02-19T20:42:47.978Z,101640.31
2023-02-19T20:45:17.068Z,101625.75
2023-02-19T20:47:45.134Z,101643.09
2023-02-19T20:50:13.197Z,101647.38
2023-02-19T20:52:43.621Z,101660.88
2023-02-19T20:55:11.749Z,101651.59
2023-02-19T20:57:39.813Z,101656.09
2023-02-19T21:00:12.186Z,101669.97
2023-02-19T21:02:40.230Z,101670.50
2023-02-19T21:05:09.998Z,101671.91
2023-02-19T21:07:40.854Z,101668.16
2023-02-19T21:10:12.372Z,101675.88
2023-02-19T21:12:40.932Z,101683.44
2023-02-19T21:15:09.348Z,101690.56
2023-02-19T21:17:37.259Z,101700.84
2023-02-19T21:20:05.574Z,101693.78
2023-02-19T21:22:33.398Z,101695.53
2023-02-19T21:25:01.278Z,101684.94
2023-02-19T21:27:29.370Z,101683.53
2023-02-19T21:29:57.192Z,101679.78
2023-02-19T21:32:25.269Z,101683.44
2023-02-19T21:34:53.405Z,101674.41
2023-02-19T21:37:21.262Z,101682.13
2023-02-19T21:39:49.431Z,101683.75
2023-02-19T21:42:17.337Z,101689.91
2023-02-19T21:44:45.175Z,101688.34
2023-02-19T21:47:13.089Z,101694.53
2023-02-19T21:49:41.977Z,101694.69
2023-02-19T21:52:11.480Z,101700.03
2023-02-19T21:54:39.305Z,101702.56
2023-02-19T21:57:07.134Z,101697.19
2023-02-19T21:59:34.986Z,101695.19
2023-02-19T22:02:02.800Z,101708.94
2023-02-19T22:04:30.758Z,101713.31
2023-02-19T22:06:58.746Z,101719.22
2023-02-19T22:09:28.065Z,101723.97
2023-02-19T22:12:00.125Z,101726.44
2023-02-19T22:14:28.632Z,101720.97
2023-02-19T22:16:56.569Z,101729.25
2023-02-19T22:19:27.910Z,101709.91
2023-02-19T22:21:55.774Z,101712.53
2023-02-19T22:24:23.601Z,101721.81
2023-02-19T22:26:56.450Z,101720.97
2023-02-19T22:29:24.512Z,101716.69
2023-02-19T22:31:53.087Z,101714.63
2023-02-19T22:34:22.113Z,101721.53
2023-02-19T22:36:50.442Z,101717.81
2023-02-19T22:39:27.363Z,101721.53
2023-02-19T22:41:55.176Z,101726.41
2023-02-19T22:44:23.033Z,101723.59
2023-02-19T22:46:56.181Z,101736.78
2023-02-19T22:49:24.245Z,101732.88
2023-02-19T22:52:00.490Z,101737.34
2023-02-19T22:54:28.477Z,101736.03
2023-02-19T22:56:56.364Z,101736.28
2023-02-19T22:59:24.282Z,101739.94
2023-02-19T23:01:52.954Z,101738.13
2023-02-19T23:04:22.120Z,101730.31
2023-02-19T23:06:50.594Z,101738.97
2023-02-19T23:09:25.236Z,101744.91
2023-02-19T23:11:53.799Z,101739.53
2023-02-19T23:14:22.419Z,101744.44
2023-02-19T23:16:50.238Z,101743.00
2023-02-19T23:19:18.077Z,101749.69
2023-02-19T23:21:46.250Z,101744.88
2023-02-19T23:24:14.811Z,101750.00
2023-02-19T23:26:50.157Z,101758.28
2023-02-19T23:29:21.043Z,101751.84
2023-02-19T23:31:49.210Z,101751.69
2023-02-19T23:34:17.450Z,101742.75
2023-02-19T23:36:49.821Z,101755.59
2023-02-19T23:39:20.403Z,101767.00
2023-02-19T23:41:57.300Z,101757.41
2023-02-19T23:44:25.854Z,101757.16
2023-02-19T23:46:53.631Z,101748.16
2023-02-19T23:49:22.191Z,101758.22
2023-02-19T23:51:50.014Z,101758.81
2023-02-19T23:54:17.926Z,101753.09
2023-02-19T23:56:45.788Z,101754.19
2023-02-19T23:59:13.723Z,101744.44
